51.7°F
Current conditions from King Hill
Updated every 5 minutes
 
  Tuesday September 30, 2014

Station Historical Data
Daily Summary for May 21, 2011 Units:  Metric    English   Both
« Previous Day
Next Day »
Daily Weekly Monthly Yearly Custom
  High: Low: Average:
Temperature: 22.8 °C 13.1 °C 16.6 °C
Dew Point: 18.3 °C 12.6 °C 15 °C
Humidity: 98% 72% 91%
Wind Speed: 9.7km/h 0km/h 3.1km/h
Wind Gust: 19.3km/h - -
Wind- - SSW
Pressure: 1014.8 hPa 1011.7 hPa -
Precipitation: 0.3 mm    
Historical Graphs
 
 
Tabular Data for May 21, 2011
Time Temperature Dew Point Pressure Wind Wind Speed Wind Gust Humidity Daily Rainfall
00:00 14.3 °C 13.8 °C 1012.8 hPa Calm   8 km/h 97% 20.3 mm
00:05 14.3 °C 13.8 °C 1012.8 hPa Calm   3.2 km/h 97% 0 mm
00:10 14.2 °C 13.7 °C 1012.4 hPa Calm   1.6 km/h 97% 0 mm
00:15 14.1 °C 13.5 °C 1012.4 hPa Calm   3.2 km/h 96% 0 mm
00:20 14.1 °C 13.6 °C 1012.4 hPa Calm   3.2 km/h 97% 0 mm
00:25 13.9 °C 13.5 °C 1012.4 hPa Calm     97% 0 mm
00:30 13.9 °C 13.4 °C 1012.1 hPa Calm     97% 0 mm
00:40 13.8 °C 13.3 °C 1012.1 hPa Calm     97% 0 mm
00:45 13.7 °C 13.3 °C 1012.1 hPa Calm     97% 0 mm
00:50 13.7 °C 13.1 °C 1011.7 hPa Calm     96% 0 mm
00:55 13.6 °C 13.1 °C 1011.7 hPa Calm     97% 0 mm
01:00 13.4 °C 13 °C 1011.7 hPa NNE 1.6 km/h 3.2 km/h 97% 0 mm
01:05 13.4 °C 12.8 °C 1012.1 hPa Calm   3.2 km/h 96% 0 mm
01:10 13.6 °C 13.2 °C 1012.1 hPa NNE 1.6 km/h 3.2 km/h 97% 0 mm
01:15 13.6 °C 13.2 °C 1012.1 hPa Calm   3.2 km/h 97% 0 mm
01:20 13.6 °C 13.1 °C 1012.1 hPa Calm   1.6 km/h 97% 0 mm
01:25 13.6 °C 13.1 °C 1012.1 hPa Calm   3.2 km/h 97% 0 mm
01:30 13.6 °C 13.2 °C 1012.1 hPa Calm   3.2 km/h 97% 0 mm
01:35 13.6 °C 13.1 °C 1012.1 hPa Calm     97% 0 mm
01:40 13.5 °C 13.1 °C 1012.1 hPa Calm     97% 0 mm
01:50 13.6 °C 13.1 °C 1012.1 hPa Calm     97% 0 mm
01:55 13.6 °C 13.2 °C 1012.4 hPa Calm   3.2 km/h 97% 0 mm
02:00 13.7 °C 13.3 °C 1012.4 hPa Calm   3.2 km/h 97% 0 mm
02:05 13.9 °C 13.5 °C 1012.4 hPa Calm   3.2 km/h 97% 0 mm
02:10 14 °C 13.6 °C 1012.1 hPa East 4.8 km/h 8 km/h 97% 0 mm
02:15 14 °C 13.6 °C 1012.1 hPa Calm   8 km/h 97% 0 mm
02:20 13.9 °C 13.5 °C 1012.1 hPa Calm   8 km/h 97% 0 mm
02:25 13.9 °C 13.4 °C 1012.1 hPa Calm   4.8 km/h 97% 0 mm
02:30 13.8 °C 13.4 °C 1012.1 hPa Calm     97% 0 mm
02:35 13.7 °C 13.3 °C 1012.1 hPa Calm     97% 0 mm
02:40 13.7 °C 13.3 °C 1012.1 hPa Calm     97% 0 mm
02:45 13.7 °C 13.2 °C 1012.1 hPa Calm     97% 0 mm
02:50 13.7 °C 13.2 °C 1012.1 hPa Calm     97% 0 mm
02:55 13.7 °C 13.2 °C 1012.1 hPa Calm     97% 0 mm
03:00 13.6 °C 13.2 °C 1012.1 hPa Calm     97% 0 mm
03:05 13.6 °C 13.1 °C 1012.1 hPa Calm     97% 0 mm
03:10 13.5 °C 13.1 °C 1012.1 hPa Calm     97% 0 mm
03:15 13.4 °C 13 °C 1012.1 hPa Calm     97% 0 mm
03:20 13.4 °C 13 °C 1012.1 hPa Calm     97% 0 mm
03:25 13.4 °C 12.9 °C 1012.1 hPa Calm     97% 0 mm
03:30 13.3 °C 12.9 °C 1012.1 hPa Calm     97% 0 mm
03:40 13.3 °C 12.9 °C 1011.7 hPa Calm     97% 0 mm
03:45 13.4 °C 13 °C 1011.7 hPa Calm     97% 0 mm
03:50 13.4 °C 13 °C 1011.7 hPa Calm     97% 0 mm
03:55 13.4 °C 12.9 °C 1011.7 hPa Calm   1.6 km/h 97% 0 mm
04:00 13.5 °C 13.1 °C 1011.7 hPa Calm   1.6 km/h 97% 0 mm
04:05 13.6 °C 13.1 °C 1011.7 hPa Calm     97% 0 mm
04:10 13.6 °C 13.1 °C 1011.7 hPa Calm     97% 0 mm
04:20 13.6 °C 13.2 °C 1012.1 hPa Calm     97% 0 mm
04:25 13.6 °C 13.2 °C 1012.1 hPa Calm     97% 0 mm
04:30 13.6 °C 13.2 °C 1011.7 hPa Calm     97% 0.3 mm
04:35 13.6 °C 13.1 °C 1012.1 hPa Calm     97% 0.3 mm
04:40 13.5 °C 13.1 °C 1012.1 hPa Calm     97% 0.3 mm
04:45 13.5 °C 13.1 °C 1012.1 hPa Calm     97% 0.3 mm
04:50 13.4 °C 13 °C 1012.1 hPa Calm     97% 0.3 mm
04:55 13.4 °C 12.9 °C 1012.1 hPa Calm     97% 0.3 mm
05:00 13.3 °C 12.8 °C 1012.4 hPa Calm     97% 0.3 mm
05:05 13.2 °C 12.8 °C 1012.1 hPa Calm     97% 0.3 mm
05:10 13.2 °C 12.7 °C 1012.1 hPa Calm     97% 0.3 mm
05:15 13.2 °C 12.7 °C 1012.4 hPa Calm     97% 0.3 mm
05:20 13.1 °C 12.6 °C 1012.4 hPa Calm     97% 0.3 mm
05:25 13.1 °C 12.7 °C 1012.4 hPa Calm     97% 0.3 mm
05:30 13.2 °C 12.7 °C 1012.4 hPa Calm     97% 0.3 mm
05:35 13.3 °C 12.8 °C 1012.8 hPa East 1.6 km/h 3.2 km/h 97% 0.3 mm
05:40 13.3 °C 12.8 °C 1012.8 hPa Calm   3.2 km/h 97% 0.3 mm
05:45 13.3 °C 12.9 °C 1012.8 hPa Calm   1.6 km/h 97% 0.3 mm
05:50 13.6 °C 13.1 °C 1012.8 hPa Calm     97% 0.3 mm
05:55 13.6 °C 13.1 °C 1012.8 hPa Calm     97% 0.3 mm
06:00 13.6 °C 13.1 °C 1012.8 hPa Calm     97% 0.3 mm
06:05 13.5 °C 13.1 °C 1012.8 hPa Calm     97% 0.3 mm
06:10 13.6 °C 13.1 °C 1012.8 hPa Calm     97% 0.3 mm
06:15 13.7 °C 13.2 °C 1012.8 hPa Calm     97% 0.3 mm
06:20 13.8 °C 13.3 °C 1012.8 hPa Calm     97% 0.3 mm
06:25 13.9 °C 13.4 °C 1012.8 hPa Calm     97% 0.3 mm
06:30 14 °C 13.6 °C 1012.8 hPa Calm     97% 0.3 mm
06:35 14.1 °C 13.6 °C 1013.1 hPa Calm     97% 0.3 mm
06:40 14.1 °C 13.7 °C 1012.8 hPa Calm     97% 0.3 mm
06:45 14.2 °C 13.8 °C 1013.1 hPa Calm     97% 0.3 mm
06:50 14.3 °C 13.8 °C 1013.1 hPa Calm     97% 0.3 mm
06:55 14.3 °C 13.9 °C 1013.1 hPa Calm     97% 0.3 mm
07:00 14.3 °C 13.9 °C 1013.1 hPa Calm     97% 0.3 mm
07:05 14.4 °C 13.9 °C 1013.1 hPa Calm     97% 0.3 mm
07:10 14.5 °C 14.1 °C 1013.1 hPa Calm     97% 0.3 mm
07:15 14.6 °C 14.1 °C 1013.1 hPa Calm     97% 0.3 mm
07:20 14.6 °C 14.2 °C 1013.1 hPa Calm     97% 0.3 mm
07:25 14.6 °C 14.1 °C 1013.1 hPa Calm   1.6 km/h 97% 0.3 mm
07:30 14.6 °C 14.1 °C 1013.4 hPa Calm   3.2 km/h 97% 0.3 mm
07:35 14.6 °C 14.2 °C 1013.4 hPa Calm   3.2 km/h 97% 0.3 mm
07:40 14.4 °C 14 °C 1013.4 hPa ENE 3.2 km/h 6.4 km/h 97% 0.3 mm
07:45 14.2 °C 13.8 °C 1013.4 hPa Calm   6.4 km/h 97% 0.3 mm
07:50 14.1 °C 13.7 °C 1013.4 hPa Calm   3.2 km/h 97% 0.3 mm
07:55 14.1 °C 13.6 °C 1013.4 hPa Calm   1.6 km/h 97% 0.3 mm
08:00 14.1 °C 13.6 °C 1013.4 hPa Calm     97% 0.3 mm
08:05 14.2 °C 13.8 °C 1013.4 hPa Calm     97% 0.3 mm
08:10 14.4 °C 14 °C 1013.4 hPa Calm     97% 0.3 mm
08:15 14.6 °C 14.1 °C 1013.4 hPa Calm     97% 0.3 mm
08:20 14.7 °C 14.2 °C 1013.4 hPa Calm     97% 0.3 mm
08:25 14.9 °C 14.4 °C 1013.4 hPa Calm     97% 0.3 mm
08:30 15 °C 14.6 °C 1013.4 hPa Calm     97% 0.3 mm
08:40 15 °C 14.6 °C 1013.4 hPa Calm   1.6 km/h 97% 0.3 mm
08:45 15 °C 14.6 °C 1013.4 hPa Calm   1.6 km/h 97% 0.3 mm
08:50 14.9 °C 14.5 °C 1013.4 hPa Calm     97% 0.3 mm
08:55 15 °C 14.6 °C 1013.4 hPa Calm     97% 0.3 mm
09:00 15.1 °C 14.6 °C 1013.4 hPa Calm     97% 0.3 mm
09:05 15.3 °C 14.8 °C 1013.4 hPa East 1.6 km/h 3.2 km/h 97% 0.3 mm
09:10 15.3 °C 14.8 °C 1013.4 hPa ENE 1.6 km/h 4.8 km/h 97% 0.3 mm
09:15 15.4 °C 14.9 °C 1013.1 hPa Calm   4.8 km/h 97% 0.3 mm
09:20 15.7 °C 15.2 °C 1013.1 hPa Calm   4.8 km/h 97% 0.3 mm
09:25 16.2 °C 15.7 °C 1013.4 hPa North 1.6 km/h 6.4 km/h 97% 0.3 mm
09:30 16.6 °C 16.1 °C 1013.4 hPa North 1.6 km/h 6.4 km/h 97% 0.3 mm
09:40 16.4 °C 16.1 °C 1013.4 hPa NNE 1.6 km/h 8 km/h 98% 0.3 mm
09:45 16.5 °C 16 °C 1013.4 hPa Calm   6.4 km/h 97% 0.3 mm
09:50 16.5 °C 16 °C 1013.4 hPa North 1.6 km/h 8 km/h 97% 0.3 mm
09:55 16.4 °C 15.9 °C 1013.4 hPa NNW 1.6 km/h 8 km/h 97% 0.3 mm
10:00 16.3 °C 15.8 °C 1013.4 hPa Calm   8 km/h 97% 0.3 mm
10:05 16.3 °C 15.8 °C 1013.8 hPa Calm   8 km/h 97% 0.3 mm
10:10 16.4 °C 15.9 °C 1013.8 hPa Calm   4.8 km/h 97% 0.3 mm
10:15 16.4 °C 15.9 °C 1013.8 hPa NW 4.8 km/h 9.7 km/h 97% 0.3 mm
10:20 16.4 °C 15.9 °C 1013.8 hPa NW 3.2 km/h 9.7 km/h 97% 0.3 mm
10:25 16.6 °C 15.9 °C 1013.8 hPa Calm   8 km/h 96% 0.3 mm
10:30 16.7 °C 16.1 °C 1013.8 hPa Calm   1.6 km/h 96% 0.3 mm
10:35 16.7 °C 16 °C 1014.1 hPa NW 3.2 km/h 6.4 km/h 96% 0.3 mm
10:40 16.6 °C 15.9 °C 1014.1 hPa NNW 1.6 km/h 6.4 km/h 96% 0.3 mm
10:45 16.3 °C 15.6 °C 1014.1 hPa NNW 1.6 km/h 6.4 km/h 95% 0.3 mm
10:50 16.2 °C 15.4 °C 1014.4 hPa Calm   8 km/h 95% 0.3 mm
10:55 16.1 °C 15.3 °C 1014.4 hPa Calm   8 km/h 95% 0.3 mm
11:00 16.1 °C 15.4 °C 1014.4 hPa Calm   4.8 km/h 96% 0.3 mm
11:05 15.9 °C 15.2 °C 1014.4 hPa Calm   6.4 km/h 95% 0.3 mm
11:10 15.9 °C 15.3 °C 1014.4 hPa Calm   6.4 km/h 96% 0.3 mm
11:15 16.1 °C 15.5 °C 1014.4 hPa Calm   6.4 km/h 96% 0.3 mm
11:20 16.4 °C 15.7 °C 1014.4 hPa Calm   6.4 km/h 96% 0.3 mm
11:25 16.6 °C 15.9 °C 1014.4 hPa Calm   6.4 km/h 96% 0.3 mm
11:30 16.8 °C 16.1 °C 1014.4 hPa NNW 1.6 km/h 6.4 km/h 96% 0.3 mm
11:35 17 °C 16.3 °C 1014.1 hPa North 1.6 km/h 6.4 km/h 96% 0.3 mm
11:40 17.4 °C 16.6 °C 1014.4 hPa North 1.6 km/h 8 km/h 95% 0.3 mm
11:45 17.9 °C 17.1 °C 1014.4 hPa North 1.6 km/h 8 km/h 95% 0.3 mm
11:50 18.3 °C 16.9 °C 1014.4 hPa NW 4.8 km/h 12.9 km/h 92% 0.3 mm
11:55 18.3 °C 16.7 °C 1014.4 hPa North 3.2 km/h 12.9 km/h 90% 0.3 mm
12:00 18.6 °C 16.9 °C 1014.4 hPa Calm   9.7 km/h 90% 0.3 mm
12:05 18.5 °C 16.3 °C 1014.4 hPa NNE 4.8 km/h 8 km/h 87% 0.3 mm
12:10 18.3 °C 16.3 °C 1014.4 hPa NNW 1.6 km/h 9.7 km/h 88% 0.3 mm
12:15 18.2 °C 16.3 °C 1014.4 hPa Calm   9.7 km/h 89% 0.3 mm
12:20 18.3 °C 16.6 °C 1014.4 hPa Calm   8 km/h 90% 0.3 mm
12:25 18.5 °C 16.5 °C 1014.4 hPa NNW 1.6 km/h 12.9 km/h 88% 0.3 mm
12:30 18.8 °C 16.7 °C 1014.4 hPa NNW 4.8 km/h 14.5 km/h 88% 0.3 mm
12:35 19 °C 16.9 °C 1014.4 hPa North 1.6 km/h 14.5 km/h 88% 0.3 mm
12:40 19.2 °C 17.2 °C 1014.4 hPa Calm   11.3 km/h 88% 0.3 mm
12:45 19.2 °C 17.2 °C 1014.4 hPa NNW 4.8 km/h 12.9 km/h 88% 0.3 mm
12:50 19.1 °C 17 °C 1014.4 hPa Calm   12.9 km/h 88% 0.3 mm
12:55 18.9 °C 16.9 °C 1014.4 hPa NW 3.2 km/h 8 km/h 88% 0.3 mm
13:00 19 °C 16.9 °C 1014.4 hPa NW 1.6 km/h 12.9 km/h 88% 0.3 mm
13:05 18.9 °C 17.1 °C 1014.4 hPa NW 4.8 km/h 16.1 km/h 89% 0.3 mm
13:10 18.9 °C 16.9 °C 1014.4 hPa NW 1.6 km/h 16.1 km/h 88% 0.3 mm
13:20 19.6 °C 17.4 °C 1014.4 hPa NNW 1.6 km/h 9.7 km/h 87% 0.3 mm
13:25 19.9 °C 17.3 °C 1014.4 hPa North 4.8 km/h 9.7 km/h 85% 0.3 mm
13:30 20.2 °C 18 °C 1014.4 hPa NNE 3.2 km/h 12.9 km/h 87% 0.3 mm
13:35 20.6 °C 17.8 °C 1014.4 hPa North 1.6 km/h 12.9 km/h 84% 0.3 mm
13:40 20.7 °C 17.5 °C 1014.1 hPa NNE 4.8 km/h 14.5 km/h 82% 0.3 mm
13:45 20.6 °C 17.6 °C 1014.1 hPa NNW 3.2 km/h 14.5 km/h 83% 0.3 mm
13:50 20.3 °C 17.7 °C 1014.1 hPa NW 4.8 km/h 14.5 km/h 85% 0.3 mm
13:55 20.6 °C 17.6 °C 1014.1 hPa NNW 3.2 km/h 14.5 km/h 83% 0.3 mm
14:00 20.3 °C 17.2 °C 1014.1 hPa North 3.2 km/h 12.9 km/h 82% 0.3 mm
14:05 20.1 °C 17.1 °C 1014.4 hPa NW 4.8 km/h 9.7 km/h 83% 0.3 mm
14:15 20.3 °C 17.5 °C 1014.4 hPa NW 6.4 km/h 12.9 km/h 84% 0.3 mm
14:20 20.2 °C 16.8 °C 1014.4 hPa Calm   12.9 km/h 81% 0.3 mm
14:25 20.2 °C 17.4 °C 1014.4 hPa NW 1.6 km/h 9.7 km/h 84% 0.3 mm
14:30 20.6 °C 17.8 °C 1014.4 hPa NW 1.6 km/h 9.7 km/h 84% 0.3 mm
14:35 20.8 °C 17.7 °C 1014.4 hPa NNW 3.2 km/h 9.7 km/h 82% 0.3 mm
14:40 21.6 °C 18.3 °C 1014.1 hPa NNE 3.2 km/h 12.9 km/h 82% 0.3 mm
14:45 21.8 °C 18 °C 1014.1 hPa NW 6.4 km/h 16.1 km/h 79% 0.3 mm
14:50 21.6 °C 17.9 °C 1014.1 hPa NNW 1.6 km/h 16.1 km/h 80% 0.3 mm
14:55 21.6 °C 17.3 °C 1014.4 hPa NW 6.4 km/h 16.1 km/h 77% 0.3 mm
15:00 21.4 °C 17.7 °C 1014.1 hPa NNW 3.2 km/h 12.9 km/h 79% 0.3 mm
15:05 21.1 °C 17.1 °C 1014.4 hPa NW 9.7 km/h 19.3 km/h 78% 0.3 mm
15:10 21.3 °C 17.9 °C 1014.4 hPa North 3.2 km/h 19.3 km/h 81% 0.3 mm
15:15 21.6 °C 17.8 °C 1014.4 hPa NW 3.2 km/h 14.5 km/h 79% 0.3 mm
15:20 21.7 °C 17.4 °C 1014.4 hPa North 3.2 km/h 14.5 km/h 77% 0.3 mm
15:25 21.5 °C 17.9 °C 1014.1 hPa Calm   12.9 km/h 80% 0.3 mm
15:30 21.6 °C 17.6 °C 1014.1 hPa North 3.2 km/h 12.9 km/h 78% 0.3 mm
15:35 21.7 °C 17.5 °C 1014.1 hPa Calm   8 km/h 77% 0.3 mm
15:40 22 °C 18 °C 1014.4 hPa NW 3.2 km/h 12.9 km/h 78% 0.3 mm
15:45 22.3 °C 17.9 °C 1014.4 hPa NNW 1.6 km/h 12.9 km/h 76% 0.3 mm
15:55 22.8 °C 17.7 °C 1014.1 hPa NNE 1.6 km/h 14.5 km/h 73% 0.3 mm
16:00 22.8 °C 17.9 °C 1014.1 hPa Calm   14.5 km/h 74% 0.3 mm
16:05 22.4 °C 17.3 °C 1014.1 hPa NNE 1.6 km/h 11.3 km/h 73% 0.3 mm
16:10 22.3 °C 17.2 °C 1014.1 hPa NE 3.2 km/h 12.9 km/h 73% 0.3 mm
16:15 21.9 °C 16.7 °C 1014.1 hPa NE 6.4 km/h 16.1 km/h 72% 0.3 mm
16:20 21.7 °C 16.9 °C 1014.1 hPa NNE 3.2 km/h 16.1 km/h 74% 0.3 mm
16:25 21.4 °C 16.8 °C 1014.1 hPa NE 1.6 km/h 14.5 km/h 75% 0.3 mm
16:30 21.1 °C 16.7 °C 1014.1 hPa NNE 3.2 km/h 14.5 km/h 76% 0.3 mm
16:35 21 °C 17.6 °C 1014.1 hPa North 1.6 km/h 11.3 km/h 81% 0.3 mm
16:40 20.4 °C 16.5 °C 1014.1 hPa NNE 1.6 km/h 14.5 km/h 78% 0.3 mm
16:45 20.2 °C 16.4 °C 1014.1 hPa ENE 3.2 km/h 14.5 km/h 79% 0.3 mm
16:50 20 °C 16.3 °C 1014.1 hPa East 3.2 km/h 12.9 km/h 79% 0.3 mm
16:55 19.6 °C 16.2 °C 1014.1 hPa East 1.6 km/h 11.3 km/h 81% 0.3 mm
17:00 19.5 °C 16.2 °C 1014.1 hPa Calm   11.3 km/h 81% 0.3 mm
17:05 19.5 °C 15.8 °C 1014.1 hPa Calm   8 km/h 79% 0.3 mm
17:10 19.8 °C 16.1 °C 1014.1 hPa Calm   8 km/h 79% 0.3 mm
17:15 19.9 °C 15.6 °C 1014.1 hPa Calm   4.8 km/h 76% 0.3 mm
17:20 19.9 °C 15.4 °C 1014.1 hPa Calm   4.8 km/h 75% 0.3 mm
17:25 20.2 °C 16 °C 1014.1 hPa Calm   4.8 km/h 77% 0.3 mm
17:30 20.4 °C 16.7 °C 1014.1 hPa Calm   4.8 km/h 79% 0.3 mm
17:35 20.8 °C 16.4 °C 1014.1 hPa Calm   4.8 km/h 76% 0.3 mm
17:40 20.9 °C 15.9 °C 1014.1 hPa Calm   4.8 km/h 73% 0.3 mm
17:45 21.4 °C 16.3 °C 1014.1 hPa Calm   4.8 km/h 73% 0.3 mm
17:50 21.8 °C 16.6 °C 1014.1 hPa Calm   3.2 km/h 72% 0.3 mm
17:55 21.9 °C 16.6 °C 1014.1 hPa Calm   4.8 km/h 72% 0.3 mm
18:00 22 °C 16.7 °C 1014.1 hPa Calm   4.8 km/h 72% 0.3 mm
18:10 22 °C 16.9 °C 1013.8 hPa Calm   6.4 km/h 73% 0.3 mm
18:15 22.2 °C 16.9 °C 1014.1 hPa Calm   3.2 km/h 72% 0.3 mm
18:20 22.3 °C 17.2 °C 1014.1 hPa Calm   1.6 km/h 73% 0.3 mm
18:25 22.1 °C 17.1 °C 1014.1 hPa Calm   8 km/h 73% 0.3 mm
18:30 21.9 °C 16.9 °C 1014.1 hPa Calm   8 km/h 73% 0.3 mm
18:35 21.8 °C 16.8 °C 1014.1 hPa Calm   1.6 km/h 73% 0.3 mm
18:40 21.7 °C 16.9 °C 1014.1 hPa Calm   4.8 km/h 74% 0.3 mm
18:45 21.6 °C 17 °C 1014.1 hPa Calm   4.8 km/h 75% 0.3 mm
18:50 21.6 °C 16.8 °C 1014.1 hPa Calm   4.8 km/h 74% 0.3 mm
18:55 21.7 °C 17.3 °C 1014.1 hPa Calm   4.8 km/h 76% 0.3 mm
19:00 21.7 °C 17.7 °C 1014.1 hPa Calm   1.6 km/h 78% 0.3 mm
19:05 21.2 °C 17.2 °C 1014.1 hPa Calm   1.6 km/h 78% 0.3 mm
19:10 21 °C 16.8 °C 1014.4 hPa Calm   1.6 km/h 77% 0.3 mm
19:15 20.7 °C 16.9 °C 1014.4 hPa Calm   1.6 km/h 79% 0.3 mm
19:20 20.3 °C 16.6 °C 1014.1 hPa Calm   1.6 km/h 79% 0.3 mm
19:25 19.9 °C 16.6 °C 1014.1 hPa Calm   1.6 km/h 81% 0.3 mm
19:35 19.1 °C 16.6 °C 1014.4 hPa Calm   1.6 km/h 85% 0.3 mm
19:40 18.7 °C 16.3 °C 1014.4 hPa Calm     86% 0.3 mm
19:45 18.4 °C 16.2 °C 1014.4 hPa Calm     87% 0.3 mm
19:50 18.1 °C 16.1 °C 1014.4 hPa Calm     88% 0.3 mm
19:55 17.8 °C 15.8 °C 1014.4 hPa Calm     88% 0.3 mm
20:05 17.3 °C 15.7 °C 1014.4 hPa Calm     90% 0.3 mm
20:10 17.1 °C 15.4 °C 1014.4 hPa Calm     90% 0.3 mm
20:15 16.9 °C 15.4 °C 1014.8 hPa Calm     91% 0.3 mm
20:20 16.7 °C 15.2 °C 1014.8 hPa Calm     91% 0.3 mm
20:25 16.4 °C 14.9 °C 1014.8 hPa Calm     91% 0.3 mm
20:30 16.2 °C 14.9 °C 1014.4 hPa Calm     92% 0.3 mm
20:35 16.2 °C 14.9 °C 1014.4 hPa Calm     92% 0.3 mm
20:40 16.1 °C 14.8 °C 1014.8 hPa Calm     92% 0.3 mm
20:45 15.8 °C 14.5 °C 1014.8 hPa Calm     92% 0.3 mm
20:50 15.7 °C 14.6 °C 1014.4 hPa Calm     93% 0.3 mm
20:55 15.6 °C 14.5 °C 1014.4 hPa Calm     93% 0.3 mm
21:00 15.5 °C 14.4 °C 1014.8 hPa Calm     93% 0.3 mm
21:10 15.1 °C 13.9 °C 1014.8 hPa Calm     93% 0.3 mm
21:15 15 °C 13.9 °C 1014.8 hPa Calm     93% 0.3 mm
21:20 15.1 °C 14.2 °C 1014.8 hPa Calm     94% 0.3 mm
21:25 15.1 °C 14.2 °C 1014.8 hPa Calm     94% 0.3 mm
21:30 15.3 °C 14.6 °C 1014.8 hPa Calm     95% 0.3 mm
21:40 15 °C 14.2 °C 1014.8 hPa Calm     95% 0.3 mm
21:45 14.8 °C 13.8 °C 1014.8 hPa Calm     94% 0.3 mm
21:50 15 °C 14.2 °C 1014.8 hPa Calm     95% 0.3 mm
21:55 14.9 °C 14.2 °C 1014.8 hPa Calm     95% 0.3 mm
22:00 14.8 °C 14 °C 1014.8 hPa Calm     95% 0.3 mm
22:05 14.8 °C 14 °C 1014.8 hPa Calm     95% 0.3 mm
22:10 15 °C 14.2 °C 1014.8 hPa Calm     95% 0.3 mm
22:15 15.2 °C 14.6 °C 1014.8 hPa Calm     96% 0.3 mm
22:20 15.1 °C 14.5 °C 1014.8 hPa Calm     96% 0.3 mm
22:25 14.7 °C 13.9 °C 1014.8 hPa Calm     95% 0.3 mm
22:30 14.2 °C 13.4 °C 1014.8 hPa Calm     95% 0.3 mm
22:35 14.1 °C 13.3 °C 1014.8 hPa Calm     95% 0.3 mm
22:40 13.9 °C 13.2 °C 1014.8 hPa Calm     95% 0.3 mm
22:45 13.9 °C 13.3 °C 1014.8 hPa Calm     96% 0.3 mm
22:50 14.1 °C 13.5 °C 1014.8 hPa Calm     96% 0.3 mm
22:55 14.4 °C 13.8 °C 1014.8 hPa Calm     96% 0.3 mm
23:00 14.6 °C 13.9 °C 1014.8 hPa Calm     96% 0.3 mm
23:05 14.4 °C 13.8 °C 1014.8 hPa Calm     96% 0.3 mm
23:10 14.1 °C 13.4 °C 1014.8 hPa Calm     96% 0.3 mm
23:15 14.2 °C 13.6 °C 1014.8 hPa Calm     96% 0.3 mm
23:20 14.3 °C 13.7 °C 1014.8 hPa Calm     96% 0.3 mm
23:25 14.1 °C 13.5 °C 1014.8 hPa Calm     96% 0.3 mm
23:30 13.9 °C 13.3 °C 1014.8 hPa Calm     96% 0.3 mm
23:35 14.3 °C 13.7 °C 1014.8 hPa Calm     96% 0.3 mm
23:40 14.1 °C 13.5 °C 1014.8 hPa Calm     96% 0.3 mm
23:45 13.9 °C 13.3 °C 1014.8 hPa Calm     96% 0.3 mm
23:50 13.8 °C 13.2 °C 1014.8 hPa Calm     96% 0.3 mm
23:55 13.7 °C 13.1 °C 1014.8 hPa Calm     96% 0.3 mm
Westford Weather
Compliments of Weather Underground

 
 
Current Radar Loop: